createdAt,value
2022-10-10T00:02:12.843Z,5.10
2022-10-10T00:04:40.397Z,6.10
2022-10-10T00:07:06.976Z,6.00
2022-10-10T00:09:33.610Z,5.57
2022-10-10T00:12:00.216Z,5.50
2022-10-10T00:14:29.319Z,5.43
2022-10-10T00:16:58.232Z,6.35
2022-10-10T00:19:24.793Z,6.10
2022-10-10T00:21:51.361Z,6.70
2022-10-10T00:24:20.288Z,6.82
2022-10-10T00:26:46.904Z,6.18
2022-10-10T00:29:13.506Z,6.18
2022-10-10T00:31:40.142Z,6.95
2022-10-10T00:34:06.677Z,6.60
2022-10-10T00:36:33.257Z,6.97
2022-10-10T00:38:59.979Z,6.97
2022-10-10T00:41:26.937Z,7.13
2022-10-10T00:44:07.628Z,6.57
2022-10-10T00:46:34.377Z,6.63
2022-10-10T00:49:01.607Z,6.10
2022-10-10T00:51:28.264Z,6.35
2022-10-10T00:53:59.868Z,6.68
2022-10-10T00:56:30.797Z,6.82
2022-10-10T00:59:00.134Z,7.55
2022-10-10T01:01:27.091Z,6.88
2022-10-10T01:03:57.006Z,6.93
2022-10-10T01:06:23.596Z,7.15
2022-10-10T01:08:50.355Z,8.02
2022-10-10T01:11:19.907Z,7.85
2022-10-10T01:13:52.133Z,7.60
2022-10-10T01:16:23.955Z,8.15
2022-10-10T01:19:03.192Z,6.85
2022-10-10T01:21:38.041Z,7.10
2022-10-10T01:24:16.849Z,7.25
2022-10-10T01:26:43.443Z,8.05
2022-10-10T01:29:14.979Z,8.07
2022-10-10T01:31:43.951Z,7.65
2022-10-10T01:34:18.675Z,7.07
2022-10-10T01:36:54.231Z,7.47
2022-10-10T01:39:27.475Z,7.32
2022-10-10T01:42:05.325Z,7.85
2022-10-10T01:44:31.963Z,7.38
2022-10-10T01:46:59.247Z,7.53
2022-10-10T01:49:28.974Z,7.57
2022-10-10T01:52:14.451Z,8.05
2022-10-10T01:54:49.614Z,7.90
2022-10-10T01:57:19.826Z,7.78
2022-10-10T01:59:46.485Z,7.45
2022-10-10T02:02:21.705Z,7.75
2022-10-10T02:05:04.565Z,8.25
2022-10-10T02:07:43.668Z,7.60
2022-10-10T02:10:11.595Z,8.48
2022-10-10T02:12:39.477Z,7.68
2022-10-10T02:15:10.163Z,8.30
2022-10-10T02:17:38.427Z,8.13
2022-10-10T02:20:06.241Z,7.88
2022-10-10T02:22:32.909Z,7.53
2022-10-10T02:24:59.580Z,8.98
2022-10-10T02:27:46.445Z,8.52
2022-10-10T02:30:13.501Z,8.02
2022-10-10T02:32:52.022Z,7.57
2022-10-10T02:35:20.376Z,7.93
2022-10-10T02:37:47.209Z,8.60
2022-10-10T02:40:16.641Z,7.50
2022-10-10T02:42:45.170Z,8.15
2022-10-10T02:45:11.806Z,7.88
2022-10-10T02:47:38.469Z,8.07
2022-10-10T02:50:05.303Z,8.73
2022-10-10T02:52:32.158Z,7.05
2022-10-10T02:54:58.754Z,7.57
2022-10-10T02:57:25.395Z,7.22
2022-10-10T02:59:52.101Z,7.20
2022-10-10T03:02:18.712Z,7.47
2022-10-10T03:04:45.376Z,8.20
2022-10-10T03:07:12.232Z,7.55
2022-10-10T03:09:38.846Z,7.55
2022-10-10T03:12:05.829Z,7.88
2022-10-10T03:14:32.458Z,7.85
2022-10-10T03:16:59.122Z,8.20
2022-10-10T03:19:26.241Z,7.65
2022-10-10T03:21:52.867Z,7.45
2022-10-10T03:24:19.432Z,7.75
2022-10-10T03:26:46.034Z,7.93
2022-10-10T03:29:12.730Z,8.30
2022-10-10T03:31:39.288Z,8.30
2022-10-10T03:34:05.853Z,8.05
2022-10-10T03:36:32.484Z,8.18
2022-10-10T03:38:59.124Z,8.02
2022-10-10T03:41:25.832Z,8.43
2022-10-10T03:43:52.385Z,9.25
2022-10-10T03:46:19.240Z,7.80
2022-10-10T03:48:45.846Z,8.48
2022-10-10T03:51:12.547Z,8.65
2022-10-10T03:53:39.221Z,9.25
2022-10-10T03:56:06.301Z,9.05
2022-10-10T03:58:32.897Z,8.80
2022-10-10T04:01:01.339Z,9.18
2022-10-10T04:03:28.321Z,9.05
2022-10-10T04:05:55.272Z,8.30
2022-10-10T04:08:21.865Z,8.93
2022-10-10T04:10:48.969Z,9.10
2022-10-10T04:13:15.711Z,9.23
2022-10-10T04:15:42.387Z,8.20
2022-10-10T04:18:10.649Z,8.70
2022-10-10T04:20:37.260Z,10.60
2022-10-10T04:23:03.927Z,10.00
2022-10-10T04:25:30.569Z,10.48
2022-10-10T04:28:00.804Z,9.95
2022-10-10T04:30:32.016Z,9.40
2022-10-10T04:32:58.598Z,10.63
2022-10-10T04:35:25.454Z,9.32
2022-10-10T04:37:53.422Z,9.48
2022-10-10T04:40:24.146Z,9.32
2022-10-10T04:42:53.312Z,9.75
2022-10-10T04:45:20.231Z,9.40
2022-10-10T04:47:46.862Z,10.20
2022-10-10T04:50:13.463Z,10.35
2022-10-10T04:52:40.121Z,10.05
2022-10-10T04:55:06.818Z,9.85
2022-10-10T04:57:33.384Z,9.43
2022-10-10T04:59:59.962Z,9.85
2022-10-10T05:02:26.645Z,10.50
2022-10-10T05:04:53.184Z,9.95
2022-10-10T05:07:19.824Z,9.77
2022-10-10T05:09:46.425Z,10.00
2022-10-10T05:12:13.033Z,9.80
2022-10-10T05:14:42.508Z,10.00
2022-10-10T05:17:11.290Z,9.32
2022-10-10T05:19:37.952Z,9.18
2022-10-10T05:22:04.626Z,10.52
2022-10-10T05:24:31.166Z,9.85
2022-10-10T05:26:57.780Z,10.13
2022-10-10T05:29:24.469Z,9.90
2022-10-10T05:31:51.064Z,9.27
2022-10-10T05:34:17.641Z,10.00
2022-10-10T05:36:44.252Z,9.13
2022-10-10T05:39:10.884Z,9.88
2022-10-10T05:41:37.494Z,9.75
2022-10-10T05:44:04.097Z,10.13
2022-10-10T05:46:30.792Z,11.07
2022-10-10T05:49:00.172Z,9.85
2022-10-10T05:51:29.204Z,10.45
2022-10-10T05:53:56.931Z,11.02
2022-10-10T05:56:23.780Z,10.07
2022-10-10T05:58:51.511Z,10.23
2022-10-10T06:01:18.095Z,9.63
2022-10-10T06:03:44.715Z,9.70
2022-10-10T06:06:11.419Z,10.82
2022-10-10T06:08:38.012Z,10.57
2022-10-10T06:11:06.115Z,11.30
2022-10-10T06:13:32.731Z,10.98
2022-10-10T06:15:59.426Z,10.60
2022-10-10T06:18:26.104Z,11.70
2022-10-10T06:20:55.039Z,11.52
2022-10-10T06:23:21.630Z,10.75
2022-10-10T06:25:51.365Z,11.25
2022-10-10T06:28:17.988Z,11.25
2022-10-10T06:30:44.954Z,11.07
2022-10-10T06:33:12.279Z,10.00
2022-10-10T06:35:41.842Z,9.30
2022-10-10T06:38:08.616Z,9.80
2022-10-10T06:40:35.254Z,11.07
2022-10-10T06:43:01.991Z,10.07
2022-10-10T06:45:28.611Z,10.30
2022-10-10T06:47:55.214Z,10.73
2022-10-10T06:50:22.015Z,9.73
2022-10-10T06:52:48.919Z,10.50
2022-10-10T06:55:15.815Z,9.82
2022-10-10T06:57:42.469Z,9.93
2022-10-10T07:00:09.721Z,9.95
2022-10-10T07:02:40.717Z,9.95
2022-10-10T07:05:13.462Z,10.88
2022-10-10T07:07:40.087Z,9.73
2022-10-10T07:10:07.607Z,10.88
2022-10-10T07:12:41.005Z,11.30
2022-10-10T07:15:10.365Z,11.95
2022-10-10T07:17:37.065Z,11.80
2022-10-10T07:20:03.904Z,13.48
2022-10-10T07:22:30.507Z,13.98
2022-10-10T07:24:57.084Z,13.50
2022-10-10T07:27:23.716Z,13.55
2022-10-10T07:29:50.281Z,12.48
2022-10-10T07:32:16.930Z,12.68
2022-10-10T07:34:43.601Z,12.30
2022-10-10T07:37:10.230Z,12.50
2022-10-10T07:39:36.894Z,11.98
2022-10-10T07:42:05.817Z,11.77
2022-10-10T07:44:34.607Z,12.90
2022-10-10T07:47:01.649Z,12.35
2022-10-10T07:49:28.314Z,12.55
2022-10-10T07:51:58.987Z,11.85
2022-10-10T07:54:28.414Z,11.07
2022-10-10T07:56:55.041Z,11.48
2022-10-10T07:59:22.206Z,12.05
2022-10-10T08:01:48.935Z,11.48
2022-10-10T08:04:15.634Z,11.23
2022-10-10T08:06:42.365Z,12.48
2022-10-10T08:09:09.283Z,12.07
2022-10-10T08:11:35.834Z,10.85
2022-10-10T08:14:02.441Z,10.93
2022-10-10T08:16:29.118Z,11.75
2022-10-10T08:18:55.746Z,10.95
2022-10-10T08:21:22.344Z,12.30
2022-10-10T08:23:49.095Z,10.90
2022-10-10T08:26:16.581Z,11.00
2022-10-10T08:28:43.864Z,10.00
2022-10-10T08:31:12.008Z,10.98
2022-10-10T08:33:39.165Z,11.68
2022-10-10T08:36:06.757Z,11.98
2022-10-10T08:38:33.493Z,12.02
2022-10-10T08:41:00.934Z,10.40
2022-10-10T08:43:31.955Z,10.00
2022-10-10T08:45:58.823Z,11.48
2022-10-10T08:48:27.934Z,10.75
2022-10-10T08:51:01.291Z,11.45
2022-10-10T08:53:34.716Z,10.68
2022-10-10T08:56:02.434Z,11.50
2022-10-10T08:58:30.023Z,10.63
2022-10-10T09:01:04.020Z,11.07
2022-10-10T09:03:33.987Z,11.20
2022-10-10T09:06:00.623Z,10.82
2022-10-10T09:08:45.761Z,11.65
2022-10-10T09:11:24.003Z,11.73
2022-10-10T09:14:09.199Z,10.50
2022-10-10T09:16:38.670Z,11.32
2022-10-10T09:19:12.575Z,10.98
2022-10-10T09:21:41.991Z,11.40
2022-10-10T09:24:16.678Z,10.38
2022-10-10T09:26:49.727Z,11.10
2022-10-10T09:29:30.727Z,11.48
2022-10-10T09:32:00.774Z,10.77
2022-10-10T09:34:40.077Z,10.95
2022-10-10T09:37:24.376Z,10.98
2022-10-10T09:39:58.676Z,10.50
2022-10-10T09:42:31.183Z,11.38
2022-10-10T09:44:57.853Z,10.43
2022-10-10T09:47:24.455Z,10.82
2022-10-10T09:49:51.200Z,29.50
2022-10-10T09:52:24.395Z,12.55
2022-10-10T09:54:55.339Z,10.75
2022-10-10T09:57:22.628Z,11.27
2022-10-10T09:59:49.246Z,10.98
2022-10-10T10:02:19.878Z,11.38
2022-10-10T10:04:47.346Z,10.90
2022-10-10T10:07:21.902Z,10.35
2022-10-10T10:10:12.108Z,11.50
2022-10-10T10:12:42.646Z,12.13
2022-10-10T10:15:17.968Z,12.63
2022-10-10T10:17:44.676Z,11.45
2022-10-10T10:20:34.577Z,11.63
2022-10-10T10:23:01.657Z,11.45
2022-10-10T10:25:31.267Z,11.52
2022-10-10T10:28:10.905Z,11.20
2022-10-10T10:30:38.608Z,11.05
2022-10-10T10:33:11.364Z,11.05
2022-10-10T10:35:43.484Z,12.13
2022-10-10T10:38:39.534Z,11.38
2022-10-10T10:41:26.360Z,11.15
2022-10-10T10:43:52.920Z,11.07
2022-10-10T10:46:19.595Z,11.43
2022-10-10T10:48:47.548Z,11.52
2022-10-10T10:51:26.410Z,10.35
2022-10-10T10:54:11.655Z,11.57
2022-10-10T10:56:38.311Z,11.40
2022-10-10T11:00:17.014Z,11.40
2022-10-10T11:02:08.254Z,11.73
2022-10-10T11:05:22.557Z,11.88
2022-10-10T11:07:43.162Z,11.23
2022-10-10T11:10:18.484Z,11.00
2022-10-10T11:12:57.218Z,10.35
2022-10-10T11:15:30.799Z,9.38
2022-10-10T11:18:10.369Z,9.73
2022-10-10T11:20:36.958Z,10.82
2022-10-10T11:23:12.032Z,9.75
2022-10-10T11:25:43.890Z,9.18
2022-10-10T11:28:13.713Z,9.50
2022-10-10T11:30:42.796Z,9.95
2022-10-10T11:33:16.027Z,10.30
2022-10-10T11:35:46.161Z,8.57
2022-10-10T11:38:12.818Z,9.10
2022-10-10T11:40:45.428Z,8.05
2022-10-10T11:43:32.193Z,8.25
2022-10-10T11:46:08.218Z,7.43
2022-10-10T11:48:58.078Z,9.20
2022-10-10T11:51:30.966Z,9.20
2022-10-10T11:54:00.898Z,9.25
2022-10-10T11:56:33.390Z,10.00
2022-10-10T11:59:18.760Z,10.27
2022-10-10T12:01:48.219Z,9.93
2022-10-10T12:04:14.857Z,11.32
2022-10-10T12:06:44.933Z,9.70
2022-10-10T12:09:14.848Z,10.70
2022-10-10T12:11:59.890Z,9.18
2022-10-10T12:14:27.871Z,9.85
2022-10-10T12:16:55.752Z,8.30
2022-10-10T12:19:23.480Z,8.52
2022-10-10T12:21:59.357Z,9.15
2022-10-10T12:24:27.309Z,8.75
2022-10-10T12:26:56.855Z,8.82
2022-10-10T12:29:42.034Z,8.60
2022-10-10T12:32:14.553Z,8.88
2022-10-10T12:34:56.602Z,9.52
2022-10-10T12:37:27.811Z,8.45
2022-10-10T12:40:03.365Z,8.65
2022-10-10T12:42:59.303Z,9.35
2022-10-10T12:45:28.728Z,9.93
2022-10-10T12:48:07.231Z,8.77
2022-10-10T12:50:43.337Z,8.10
2022-10-10T12:53:12.998Z,8.35
2022-10-10T12:55:44.919Z,8.50
2022-10-10T12:58:31.798Z,7.78
2022-10-10T13:01:00.029Z,8.18
2022-10-10T13:03:37.809Z,7.65
2022-10-10T13:06:27.696Z,7.57
2022-10-10T13:08:55.508Z,7.72
2022-10-10T13:11:22.145Z,8.18
2022-10-10T13:13:56.397Z,7.25
2022-10-10T13:16:24.390Z,7.88
2022-10-10T13:19:00.089Z,7.10
2022-10-10T13:21:28.719Z,9.05
2022-10-10T13:24:03.494Z,8.38
2022-10-10T13:26:35.403Z,8.50
2022-10-10T13:29:06.882Z,9.23
2022-10-10T13:31:33.579Z,8.43
2022-10-10T13:34:03.101Z,8.73
2022-10-10T13:36:30.447Z,9.02
2022-10-10T13:38:57.292Z,8.93
2022-10-10T13:41:24.689Z,9.65
2022-10-10T13:43:51.718Z,8.55
2022-10-10T13:46:22.773Z,9.23
2022-10-10T13:48:50.723Z,8.82
2022-10-10T13:51:17.463Z,8.48
2022-10-10T13:53:44.042Z,8.98
2022-10-10T13:56:30.341Z,8.95
2022-10-10T13:59:06.229Z,8.57
2022-10-10T14:01:33.082Z,9.13
2022-10-10T14:04:18.283Z,8.60
2022-10-10T14:06:58.638Z,8.35
2022-10-10T14:09:35.313Z,8.27
2022-10-10T14:12:03.551Z,8.45
2022-10-10T14:14:34.932Z,8.65
2022-10-10T14:17:24.276Z,9.63
2022-10-10T14:19:52.340Z,9.18
2022-10-10T14:22:19.494Z,8.93
2022-10-10T14:24:46.353Z,8.40
2022-10-10T14:27:15.670Z,9.68
2022-10-10T14:29:42.581Z,10.63
2022-10-10T14:32:10.426Z,9.85
2022-10-10T14:41:57.143Z,9.32
2022-10-10T14:44:37.367Z,9.38
2022-10-10T14:47:16.020Z,9.07
2022-10-10T14:49:47.399Z,8.90
2022-10-10T14:52:16.927Z,9.00
2022-10-10T14:54:43.571Z,8.10
2022-10-10T14:57:14.716Z,8.48
2022-10-10T14:59:47.433Z,8.60
2022-10-10T15:02:20.513Z,9.18
2022-10-10T15:04:47.383Z,9.77
2022-10-10T15:07:15.198Z,9.13
2022-10-10T15:09:56.489Z,9.25
2022-10-10T15:12:29.861Z,8.65
2022-10-10T15:14:56.505Z,8.15
2022-10-10T15:17:24.453Z,8.27
2022-10-10T15:19:52.180Z,9.60
2022-10-10T15:22:19.020Z,8.52
2022-10-10T15:24:45.623Z,9.02
2022-10-10T15:27:12.244Z,9.32
2022-10-10T15:29:39.224Z,8.52
2022-10-10T15:32:06.473Z,8.25
2022-10-10T15:34:36.195Z,8.38
2022-10-10T15:37:02.890Z,8.48
2022-10-10T15:39:30.967Z,8.45
2022-10-10T15:41:57.728Z,8.27
2022-10-10T15:44:24.432Z,8.20
2022-10-10T15:46:51.034Z,8.73
2022-10-10T15:49:17.646Z,8.35
2022-10-10T15:51:45.280Z,9.13
2022-10-10T15:54:12.333Z,7.93
2022-10-10T15:56:39.270Z,9.95
2022-10-10T15:59:06.144Z,9.88
2022-10-10T16:01:32.812Z,9.55
2022-10-10T16:04:02.295Z,9.30
2022-10-10T16:06:29.151Z,9.10
2022-10-10T16:09:10.013Z,8.50
2022-10-10T16:11:42.932Z,8.50
2022-10-10T16:14:10.610Z,8.38
2022-10-10T16:16:37.354Z,9.70
2022-10-10T16:19:04.018Z,8.18
2022-10-10T16:21:33.508Z,8.07
2022-10-10T16:24:00.518Z,7.43
2022-10-10T16:26:31.944Z,7.57
2022-10-10T16:28:59.164Z,7.07
2022-10-10T16:31:30.609Z,6.35
2022-10-10T16:34:15.137Z,6.10
2022-10-10T16:36:41.885Z,7.00
2022-10-10T16:39:08.607Z,7.32
2022-10-10T16:41:47.689Z,5.93
2022-10-10T16:44:15.428Z,4.85
2022-10-10T16:46:42.324Z,4.40
2022-10-10T16:49:09.893Z,4.00
2022-10-10T16:51:37.071Z,3.92
2022-10-10T16:54:07.431Z,3.90
2022-10-10T16:56:34.978Z,3.33
2022-10-10T16:59:01.739Z,3.42
2022-10-10T17:01:30.932Z,3.70
2022-10-10T17:03:58.676Z,5.18
2022-10-10T17:06:34.925Z,3.92
2022-10-10T17:09:02.738Z,3.95
2022-10-10T17:11:29.830Z,3.42
2022-10-10T17:13:56.499Z,4.07
2022-10-10T17:19:11.299Z,3.30
2022-10-10T17:21:38.033Z,3.13
2022-10-10T17:24:04.722Z,3.72
2022-10-10T17:26:31.374Z,3.85
2022-10-10T17:28:59.071Z,3.78
2022-10-10T17:31:25.838Z,3.90
2022-10-10T17:33:54.535Z,3.33
2022-10-10T17:36:22.925Z,3.83
2022-10-10T17:38:49.622Z,4.10
2022-10-10T17:41:17.077Z,3.50
2022-10-10T17:43:44.231Z,3.13
2022-10-10T17:46:33.204Z,3.13
2022-10-10T17:48:59.089Z,3.20
2022-10-10T17:51:27.247Z,3.60
2022-10-10T17:53:53.875Z,3.20
2022-10-10T17:56:21.468Z,4.05
2022-10-10T17:58:48.305Z,3.72
2022-10-10T18:01:15.954Z,3.38
2022-10-10T18:03:42.716Z,3.63
2022-10-10T18:06:13.825Z,3.15
2022-10-10T18:08:40.820Z,3.33
2022-10-10T18:11:18.171Z,3.00
2022-10-10T18:13:45.234Z,3.50
2022-10-10T18:16:12.979Z,3.13
2022-10-10T18:18:40.667Z,3.38
2022-10-10T18:21:08.423Z,2.90
2022-10-10T18:23:35.104Z,2.97
2022-10-10T18:26:02.739Z,3.28
2022-10-10T18:28:30.724Z,2.83
2022-10-10T18:30:57.480Z,3.30
2022-10-10T18:33:27.338Z,2.65
2022-10-10T18:35:53.976Z,2.88
2022-10-10T18:38:20.672Z,3.58
2022-10-10T18:40:47.306Z,2.92
2022-10-10T18:43:13.968Z,3.38
2022-10-10T18:45:40.548Z,3.13
2022-10-10T18:48:07.279Z,3.53
2022-10-10T18:50:34.037Z,3.55
2022-10-10T18:53:00.690Z,2.90
2022-10-10T18:55:30.417Z,3.22
2022-10-10T18:57:57.818Z,3.33
2022-10-10T19:00:27.472Z,3.92
2022-10-10T19:02:54.159Z,4.35
2022-10-10T19:05:20.789Z,3.38
2022-10-10T19:07:47.486Z,3.67
2022-10-10T19:10:14.173Z,3.60
2022-10-10T19:12:45.126Z,3.88
2022-10-10T19:15:14.808Z,3.75
2022-10-10T19:17:41.484Z,4.53
2022-10-10T19:20:08.336Z,4.28
2022-10-10T19:22:34.992Z,3.50
2022-10-10T19:25:02.922Z,3.78
2022-10-10T19:27:29.527Z,3.53
2022-10-10T19:29:56.142Z,3.47
2022-10-10T19:32:22.763Z,3.35
2022-10-10T19:34:49.379Z,3.88
2022-10-10T19:37:16.103Z,3.33
2022-10-10T19:39:42.758Z,3.60
2022-10-10T19:42:09.381Z,3.20
2022-10-10T19:44:35.976Z,3.33
2022-10-10T19:47:02.657Z,3.70
2022-10-10T19:49:30.217Z,4.03
2022-10-10T19:51:56.772Z,4.03
2022-10-10T19:54:23.420Z,3.80
2022-10-10T19:56:50.923Z,3.58
2022-10-10T19:59:17.770Z,4.13
2022-10-10T20:01:44.816Z,3.90
2022-10-10T20:04:12.021Z,4.10
2022-10-10T20:06:41.198Z,4.05
2022-10-10T20:09:10.796Z,3.88
2022-10-10T20:11:37.959Z,3.97
2022-10-10T20:14:04.680Z,3.92
2022-10-10T20:16:31.611Z,3.90
2022-10-10T20:19:01.511Z,3.75
2022-10-10T20:21:31.421Z,3.58
2022-10-10T20:24:02.047Z,3.85
2022-10-10T20:26:28.764Z,4.00
2022-10-10T20:28:56.376Z,3.60
2022-10-10T20:31:24.087Z,3.85
2022-10-10T20:33:52.147Z,3.80
2022-10-10T20:36:19.671Z,3.88
2022-10-10T20:38:51.834Z,3.88
2022-10-10T20:41:18.561Z,3.83
2022-10-10T20:43:45.164Z,4.50
2022-10-10T20:46:14.045Z,3.70
2022-10-10T20:48:40.833Z,4.20
2022-10-10T20:51:11.690Z,4.60
2022-10-10T20:53:39.391Z,3.90
2022-10-10T20:56:07.370Z,4.43
2022-10-10T20:58:34.926Z,3.88
2022-10-10T21:01:12.277Z,4.57
2022-10-10T21:03:39.774Z,4.55
2022-10-10T21:06:09.050Z,4.25
2022-10-10T21:08:36.309Z,4.05
2022-10-10T21:11:05.286Z,4.35
2022-10-10T21:13:32.969Z,4.72
2022-10-10T21:15:59.712Z,4.35
2022-10-10T21:18:26.495Z,4.30
2022-10-10T21:20:58.327Z,4.85
2022-10-10T21:23:24.932Z,4.20
2022-10-10T21:25:51.553Z,4.47
2022-10-10T21:28:18.167Z,4.55
2022-10-10T21:30:51.555Z,4.20
2022-10-10T21:33:21.394Z,5.28
2022-10-10T21:35:50.913Z,4.43
2022-10-10T21:38:17.533Z,3.72
2022-10-10T21:40:44.335Z,4.05
2022-10-10T21:43:11.312Z,3.78
2022-10-10T21:45:39.015Z,4.15
2022-10-10T21:48:06.816Z,4.90
2022-10-10T21:50:33.843Z,4.15
2022-10-10T21:53:00.630Z,3.80
2022-10-10T21:55:27.289Z,4.90
2022-10-10T21:57:53.821Z,4.28
2022-10-10T22:00:20.773Z,3.95
2022-10-10T22:02:47.727Z,4.88
2022-10-10T22:05:14.864Z,4.32
2022-10-10T22:07:42.229Z,5.75
2022-10-10T22:10:10.066Z,5.40
2022-10-10T22:12:36.636Z,5.47
2022-10-10T22:15:03.233Z,5.35
2022-10-10T22:17:29.839Z,5.65
2022-10-10T22:19:56.409Z,4.95
2022-10-10T22:22:22.984Z,5.30
2022-10-10T22:24:49.582Z,5.15
2022-10-10T22:27:16.140Z,5.80
2022-10-10T22:29:42.797Z,4.90
2022-10-10T22:32:09.436Z,4.85
2022-10-10T22:34:36.042Z,5.85
2022-10-10T22:37:02.628Z,5.53
2022-10-10T22:39:29.217Z,5.78
2022-10-10T22:41:55.822Z,7.07
2022-10-10T22:44:22.409Z,6.30
2022-10-10T22:46:49.066Z,6.30
2022-10-10T22:49:15.721Z,6.50
2022-10-10T22:51:42.339Z,6.47
2022-10-10T22:54:09.939Z,6.82
2022-10-10T22:56:36.504Z,6.72
2022-10-10T22:59:03.062Z,6.18
2022-10-10T23:01:29.759Z,6.25
2022-10-10T23:04:00.363Z,5.93
2022-10-10T23:06:27.479Z,6.90
2022-10-10T23:08:54.114Z,6.10
2022-10-10T23:11:21.032Z,6.78
2022-10-10T23:13:48.092Z,6.68
2022-10-10T23:16:15.237Z,6.45
2022-10-10T23:18:41.799Z,7.00
2022-10-10T23:21:08.516Z,7.05
2022-10-10T23:23:35.155Z,6.65
2022-10-10T23:26:05.146Z,7.70
2022-10-10T23:28:32.022Z,7.05
2022-10-10T23:31:01.530Z,7.55
2022-10-10T23:33:28.134Z,8.27
2022-10-10T23:36:01.649Z,8.38
2022-10-10T23:38:28.541Z,9.57
2022-10-10T23:40:56.701Z,8.88
2022-10-10T23:43:23.704Z,9.63
2022-10-10T23:45:50.274Z,8.68
2022-10-10T23:48:17.364Z,9.73
2022-10-10T23:50:44.384Z,8.75
2022-10-10T23:53:11.095Z,8.40
2022-10-10T23:55:38.069Z,7.90
2022-10-10T23:58:08.029Z,7.90
